Time;durP1;ratioP1;P1;durP2;ratioP2;P2;SDS_P1;SDS_P2;PMS_P1;PMS_P2;Temp;Humidity;BMP_temperature;BMP_pressure;BME280_temperature;BME280_humidity;BME280_pressure;Samples;Min_cycle;Max_cycle;Signal;HPM_P1;HPM_P2
2021/09/08 00:00:17;;;;;;;16.4;13.05;;;;;;;10;72.25488;95604.97;;;;
2021/09/08 00:01:18;;;;;;;16.4;13.05;;;;;;;10;72.25488;95604.97;;;;
2021/09/08 00:02:18;;;;;;;16.4;13.05;;;;;;;10;72.25488;95604.97;;;;
2021/09/08 00:03:19;;;;;;;17.45;13.15;;;;;;;9.95;72.43945;95595.39;;;;
2021/09/08 00:04:19;;;;;;;17.45;13.15;;;;;;;9.95;72.43945;95595.39;;;;
2021/09/08 00:05:20;;;;;;;17.45;13.15;;;;;;;9.95;72.43945;95595.39;;;;
2021/09/08 00:06:20;;;;;;;17.45;13.15;;;;;;;9.95;72.43945;95595.39;;;;
2021/09/08 00:07:21;;;;;;;17.45;13.15;;;;;;;9.95;72.43945;95595.39;;;;
2021/09/08 00:08:21;;;;;;;17.45;13.15;;;;;;;9.95;72.43945;95595.39;;;;
2021/09/08 00:09:22;;;;;;;17.45;13.15;;;;;;;9.95;72.43945;95595.39;;;;
2021/09/08 00:10:23;;;;;;;17.45;13.15;;;;;;;9.95;72.43945;95595.39;;;;
2021/09/08 00:11:23;;;;;;;17.45;13.15;;;;;;;9.95;72.43945;95595.39;;;;
2021/09/08 00:12:24;;;;;;;17.45;13.15;;;;;;;9.95;72.43945;95595.39;;;;
2021/09/08 00:13:25;;;;;;;16.2;13.05;;;;;;;9.81;72.60645;95577.29;;;;
2021/09/08 00:14:25;;;;;;;16.2;13.05;;;;;;;9.81;72.60645;95577.29;;;;
2021/09/08 00:15:26;;;;;;;16.2;13.05;;;;;;;9.81;72.60645;95577.29;;;;
2021/09/08 00:16:26;;;;;;;16.2;13.05;;;;;;;9.81;72.60645;95577.29;;;;
2021/09/08 00:17:27;;;;;;;16.2;13.05;;;;;;;9.81;72.60645;95577.29;;;;
2021/09/08 00:18:27;;;;;;;16.2;13.05;;;;;;;9.81;72.60645;95577.29;;;;
2021/09/08 00:19:28;;;;;;;16.2;13.05;;;;;;;9.81;72.60645;95577.29;;;;
2021/09/08 00:20:28;;;;;;;16.2;13.05;;;;;;;9.81;72.60645;95577.29;;;;
2021/09/08 00:21:29;;;;;;;16.2;13.05;;;;;;;9.81;72.60645;95577.29;;;;
2021/09/08 00:22:29;;;;;;;16.2;13.05;;;;;;;9.81;72.60645;95577.29;;;;
2021/09/08 00:23:30;;;;;;;16.2;13.05;;;;;;;9.81;72.60645;95577.29;;;;
2021/09/08 00:24:30;;;;;;;18.1;12.5;;;;;;;9.69;72.89648;95566.13;;;;
2021/09/08 00:25:31;;;;;;;18.1;12.5;;;;;;;9.69;72.89648;95566.13;;;;
2021/09/08 00:26:31;;;;;;;18.1;12.5;;;;;;;9.69;72.89648;95566.13;;;;
2021/09/08 00:27:32;;;;;;;18.1;12.5;;;;;;;9.69;72.89648;95566.13;;;;
2021/09/08 00:28:32;;;;;;;18.1;12.5;;;;;;;9.69;72.89648;95566.13;;;;
2021/09/08 00:29:33;;;;;;;18.1;12.5;;;;;;;9.69;72.89648;95566.13;;;;
2021/09/08 00:30:34;;;;;;;18.1;12.5;;;;;;;9.69;72.89648;95566.13;;;;
2021/09/08 00:31:35;;;;;;;18.1;12.5;;;;;;;9.69;72.89648;95566.13;;;;
2021/09/08 00:32:35;;;;;;;18.1;12.5;;;;;;;9.69;72.89648;95566.13;;;;
2021/09/08 00:33:36;;;;;;;18.1;12.5;;;;;;;9.69;72.89648;95566.13;;;;
2021/09/08 00:34:36;;;;;;;16.05;13.4;;;;;;;9.58;73.12305;95557.84;;;;
2021/09/08 00:35:37;;;;;;;16.05;13.4;;;;;;;9.58;73.12305;95557.84;;;;
2021/09/08 00:36:37;;;;;;;16.05;13.4;;;;;;;9.58;73.12305;95557.84;;;;
2021/09/08 00:37:38;;;;;;;16.05;13.4;;;;;;;9.58;73.12305;95557.84;;;;
2021/09/08 00:38:39;;;;;;;16.05;13.4;;;;;;;9.58;73.12305;95557.84;;;;
2021/09/08 00:39:39;;;;;;;16.05;13.4;;;;;;;9.58;73.12305;95557.84;;;;
2021/09/08 00:40:40;;;;;;;16.05;13.4;;;;;;;9.58;73.12305;95557.84;;;;
2021/09/08 00:41:41;;;;;;;16.05;13.4;;;;;;;9.58;73.12305;95557.84;;;;
2021/09/08 00:42:41;;;;;;;16.05;13.4;;;;;;;9.58;73.12305;95557.84;;;;
2021/09/08 00:43:42;;;;;;;16.05;13.4;;;;;;;9.58;73.12305;95557.84;;;;
2021/09/08 00:44:43;;;;;;;16.05;13.4;;;;;;;9.58;73.12305;95557.84;;;;
2021/09/08 00:45:44;;;;;;;17.3;13.55;;;;;;;9.48;73.43945;95542.16;;;;
2021/09/08 00:46:50;;;;;;;17.3;13.55;;;;;;;9.48;73.43945;95542.16;;;;
2021/09/08 00:47:50;;;;;;;17.3;13.55;;;;;;;9.48;73.43945;95542.16;;;;
2021/09/08 00:48:51;;;;;;;17.3;13.55;;;;;;;9.48;73.43945;95542.16;;;;
2021/09/08 00:49:51;;;;;;;17.3;13.55;;;;;;;9.48;73.43945;95542.16;;;;
2021/09/08 00:50:52;;;;;;;17.3;13.55;;;;;;;9.48;73.43945;95542.16;;;;
2021/09/08 00:51:52;;;;;;;17.3;13.55;;;;;;;9.48;73.43945;95542.16;;;;
2021/09/08 00:52:55;;;;;;;17.3;13.55;;;;;;;9.48;73.43945;95542.16;;;;
2021/09/08 00:53:58;;;;;;;17.3;13.55;;;;;;;9.48;73.43945;95542.16;;;;
2021/09/08 00:54:59;;;;;;;17.3;13.55;;;;;;;9.48;73.43945;95542.16;;;;
2021/09/08 00:56:01;;;;;;;18.15;14.4;;;;;;;9.39;73.72266;95526.9;;;;
2021/09/08 00:57:02;;;;;;;18.15;14.4;;;;;;;9.39;73.72266;95526.9;;;;
2021/09/08 00:58:07;;;;;;;18.15;14.4;;;;;;;9.39;73.72266;95526.9;;;;
2021/09/08 00:59:07;;;;;;;18.15;14.4;;;;;;;9.39;73.72266;95526.9;;;;
2021/09/08 01:00:08;;;;;;;18.15;14.4;;;;;;;9.39;73.72266;95526.9;;;;
2021/09/08 01:01:10;;;;;;;18.15;14.4;;;;;;;9.39;73.72266;95526.9;;;;
2021/09/08 01:02:10;;;;;;;18.15;14.4;;;;;;;9.39;73.72266;95526.9;;;;
2021/09/08 01:03:12;;;;;;;18.15;14.4;;;;;;;9.39;73.72266;95526.9;;;;
2021/09/08 01:04:13;;;;;;;18.15;14.4;;;;;;;9.39;73.72266;95526.9;;;;
2021/09/08 01:05:14;;;;;;;18.15;14.4;;;;;;;9.39;73.72266;95526.9;;;;
2021/09/08 01:06:15;;;;;;;18.15;14.4;;;;;;;9.39;73.72266;95526.9;;;;
2021/09/08 01:07:15;;;;;;;17.75;14;;;;;;;9.29;73.99512;95518.02;;;;
2021/09/08 01:08:17;;;;;;;17.75;14;;;;;;;9.29;73.99512;95518.02;;;;
2021/09/08 01:09:17;;;;;;;17.75;14;;;;;;;9.29;73.99512;95518.02;;;;
2021/09/08 01:10:18;;;;;;;17.75;14;;;;;;;9.29;73.99512;95518.02;;;;
2021/09/08 01:11:19;;;;;;;17.75;14;;;;;;;9.29;73.99512;95518.02;;;;
2021/09/08 01:12:20;;;;;;;17.75;14;;;;;;;9.29;73.99512;95518.02;;;;
2021/09/08 01:13:20;;;;;;;17.75;14;;;;;;;9.29;73.99512;95518.02;;;;
2021/09/08 01:14:21;;;;;;;17.75;14;;;;;;;9.29;73.99512;95518.02;;;;
2021/09/08 01:15:21;;;;;;;17.75;14;;;;;;;9.29;73.99512;95518.02;;;;
2021/09/08 01:16:22;;;;;;;17.75;14;;;;;;;9.29;73.99512;95518.02;;;;
2021/09/08 01:17:22;;;;;;;19.8;13.65;;;;;;;9.21;74.14941;95519.76;;;;
2021/09/08 01:18:23;;;;;;;19.8;13.65;;;;;;;9.21;74.14941;95519.76;;;;
2021/09/08 01:19:24;;;;;;;19.8;13.65;;;;;;;9.21;74.14941;95519.76;;;;
2021/09/08 01:20:24;;;;;;;19.8;13.65;;;;;;;9.21;74.14941;95519.76;;;;
2021/09/08 01:21:25;;;;;;;19.8;13.65;;;;;;;9.21;74.14941;95519.76;;;;
2021/09/08 01:22:25;;;;;;;19.8;13.65;;;;;;;9.21;74.14941;95519.76;;;;
2021/09/08 01:23:29;;;;;;;19.8;13.65;;;;;;;9.21;74.14941;95519.76;;;;
2021/09/08 01:24:30;;;;;;;19.8;13.65;;;;;;;9.21;74.14941;95519.76;;;;
2021/09/08 01:25:31;;;;;;;19.8;13.65;;;;;;;9.21;74.14941;95519.76;;;;
2021/09/08 01:26:31;;;;;;;19.8;13.65;;;;;;;9.21;74.14941;95519.76;;;;
2021/09/08 01:27:34;;;;;;;19.8;13.65;;;;;;;9.21;74.14941;95519.76;;;;
2021/09/08 01:28:34;;;;;;;19.05;14.25;;;;;;;9.12;74.2627;95520.15;;;;
2021/09/08 01:29:35;;;;;;;19.05;14.25;;;;;;;9.12;74.2627;95520.15;;;;
2021/09/08 01:30:35;;;;;;;19.05;14.25;;;;;;;9.12;74.2627;95520.15;;;;
2021/09/08 01:31:36;;;;;;;19.05;14.25;;;;;;;9.12;74.2627;95520.15;;;;
2021/09/08 01:32:37;;;;;;;19.05;14.25;;;;;;;9.12;74.2627;95520.15;;;;
2021/09/08 01:33:37;;;;;;;19.05;14.25;;;;;;;9.12;74.2627;95520.15;;;;
2021/09/08 01:34:38;;;;;;;19.05;14.25;;;;;;;9.12;74.2627;95520.15;;;;
2021/09/08 01:35:38;;;;;;;19.05;14.25;;;;;;;9.12;74.2627;95520.15;;;;
2021/09/08 01:36:40;;;;;;;19.05;14.25;;;;;;;9.12;74.2627;95520.15;;;;
2021/09/08 01:37:41;;;;;;;19.05;14.25;;;;;;;9.12;74.2627;95520.15;;;;
2021/09/08 01:38:41;;;;;;;20.4;13.65;;;;;;;9.12;74.25195;95510.74;;;;
2021/09/08 01:39:42;;;;;;;20.4;13.65;;;;;;;9.12;74.25195;95510.74;;;;
2021/09/08 01:40:42;;;;;;;20.4;13.65;;;;;;;9.12;74.25195;95510.74;;;;
2021/09/08 01:41:43;;;;;;;20.4;13.65;;;;;;;9.12;74.25195;95510.74;;;;
2021/09/08 01:42:45;;;;;;;20.4;13.65;;;;;;;9.12;74.25195;95510.74;;;;
2021/09/08 01:43:46;;;;;;;20.4;13.65;;;;;;;9.12;74.25195;95510.74;;;;
2021/09/08 01:44:47;;;;;;;20.4;13.65;;;;;;;9.12;74.25195;95510.74;;;;
2021/09/08 01:45:48;;;;;;;20.4;13.65;;;;;;;9.12;74.25195;95510.74;;;;
2021/09/08 01:46:48;;;;;;;20.4;13.65;;;;;;;9.12;74.25195;95510.74;;;;
2021/09/08 01:47:51;;;;;;;20.4;13.65;;;;;;;9.12;74.25195;95510.74;;;;
2021/09/08 01:48:53;;;;;;;20.4;13.65;;;;;;;9.12;74.25195;95510.74;;;;
2021/09/08 01:49:53;;;;;;;18.2;13.45;;;;;;;9.02;74.33203;95504.06;;;;
2021/09/08 01:50:54;;;;;;;18.2;13.45;;;;;;;9.02;74.33203;95504.06;;;;
2021/09/08 01:51:55;;;;;;;18.2;13.45;;;;;;;9.02;74.33203;95504.06;;;;
2021/09/08 01:52:56;;;;;;;18.2;13.45;;;;;;;9.02;74.33203;95504.06;;;;
2021/09/08 01:53:57;;;;;;;18.2;13.45;;;;;;;9.02;74.33203;95504.06;;;;
2021/09/08 01:54:58;;;;;;;18.2;13.45;;;;;;;9.02;74.33203;95504.06;;;;
2021/09/08 01:55:59;;;;;;;18.2;13.45;;;;;;;9.02;74.33203;95504.06;;;;
2021/09/08 01:56:59;;;;;;;18.2;13.45;;;;;;;9.02;74.33203;95504.06;;;;
2021/09/08 01:58:00;;;;;;;18.2;13.45;;;;;;;9.02;74.33203;95504.06;;;;
2021/09/08 01:59:00;;;;;;;18.2;13.45;;;;;;;9.02;74.33203;95504.06;;;;
2021/09/08 02:00:00;;;;;;;20.7;13.9;;;;;;;8.93;74.58301;95498.66;;;;
2021/09/08 02:01:02;;;;;;;20.7;13.9;;;;;;;8.93;74.58301;95498.66;;;;
2021/09/08 02:02:03;;;;;;;20.7;13.9;;;;;;;8.93;74.58301;95498.66;;;;
2021/09/08 02:03:04;;;;;;;20.7;13.9;;;;;;;8.93;74.58301;95498.66;;;;
2021/09/08 02:04:04;;;;;;;20.7;13.9;;;;;;;8.93;74.58301;95498.66;;;;
2021/09/08 02:05:05;;;;;;;20.7;13.9;;;;;;;8.93;74.58301;95498.66;;;;
2021/09/08 02:06:06;;;;;;;20.7;13.9;;;;;;;8.93;74.58301;95498.66;;;;
2021/09/08 02:07:25;;;;;;;20.7;13.9;;;;;;;8.93;74.58301;95498.66;;;;
2021/09/08 02:08:25;;;;;;;20.7;13.9;;;;;;;8.93;74.58301;95498.66;;;;
2021/09/08 02:09:26;;;;;;;20.7;13.9;;;;;;;8.93;74.58301;95498.66;;;;
2021/09/08 02:10:26;;;;;;;20.7;13.9;;;;;;;8.93;74.58301;95498.66;;;;
2021/09/08 02:11:27;;;;;;;18.95;14.5;;;;;;;8.85;74.85742;95490.33;;;;
2021/09/08 02:12:28;;;;;;;18.95;14.5;;;;;;;8.85;74.85742;95490.33;;;;
2021/09/08 02:13:28;;;;;;;18.95;14.5;;;;;;;8.85;74.85742;95490.33;;;;
2021/09/08 02:14:29;;;;;;;18.95;14.5;;;;;;;8.85;74.85742;95490.33;;;;
2021/09/08 02:15:29;;;;;;;18.95;14.5;;;;;;;8.85;74.85742;95490.33;;;;
2021/09/08 02:16:29;;;;;;;18.95;14.5;;;;;;;8.85;74.85742;95490.33;;;;
2021/09/08 02:17:30;;;;;;;18.95;14.5;;;;;;;8.85;74.85742;95490.33;;;;
2021/09/08 02:18:31;;;;;;;18.95;14.5;;;;;;;8.85;74.85742;95490.33;;;;
2021/09/08 02:19:31;;;;;;;18.95;14.5;;;;;;;8.85;74.85742;95490.33;;;;
2021/09/08 02:20:32;;;;;;;18.95;14.5;;;;;;;8.85;74.85742;95490.33;;;;
2021/09/08 02:21:33;;;;;;;16.9;13.65;;;;;;;8.81;75.08398;95491.42;;;;
2021/09/08 02:22:33;;;;;;;16.9;13.65;;;;;;;8.81;75.08398;95491.42;;;;
2021/09/08 02:23:34;;;;;;;16.9;13.65;;;;;;;8.81;75.08398;95491.42;;;;
2021/09/08 02:24:34;;;;;;;16.9;13.65;;;;;;;8.81;75.08398;95491.42;;;;
2021/09/08 02:25:35;;;;;;;16.9;13.65;;;;;;;8.81;75.08398;95491.42;;;;
2021/09/08 02:26:35;;;;;;;16.9;13.65;;;;;;;8.81;75.08398;95491.42;;;;
2021/09/08 02:27:36;;;;;;;16.9;13.65;;;;;;;8.81;75.08398;95491.42;;;;
2021/09/08 02:28:36;;;;;;;16.9;13.65;;;;;;;8.81;75.08398;95491.42;;;;
2021/09/08 02:29:37;;;;;;;16.9;13.65;;;;;;;8.81;75.08398;95491.42;;;;
2021/09/08 02:30:38;;;;;;;16.9;13.65;;;;;;;8.81;75.08398;95491.42;;;;
2021/09/08 02:31:38;;;;;;;16.9;13.65;;;;;;;8.81;75.08398;95491.42;;;;
2021/09/08 02:32:39;;;;;;;18.5;13.65;;;;;;;8.78;75.24902;95488.73;;;;
2021/09/08 02:33:40;;;;;;;18.5;13.65;;;;;;;8.78;75.24902;95488.73;;;;
2021/09/08 02:34:41;;;;;;;18.5;13.65;;;;;;;8.78;75.24902;95488.73;;;;
2021/09/08 02:35:42;;;;;;;18.5;13.65;;;;;;;8.78;75.24902;95488.73;;;;
2021/09/08 02:36:42;;;;;;;18.5;13.65;;;;;;;8.78;75.24902;95488.73;;;;
2021/09/08 02:37:43;;;;;;;18.5;13.65;;;;;;;8.78;75.24902;95488.73;;;;
2021/09/08 02:38:43;;;;;;;18.5;13.65;;;;;;;8.78;75.24902;95488.73;;;;
2021/09/08 02:39:44;;;;;;;18.5;13.65;;;;;;;8.78;75.24902;95488.73;;;;
2021/09/08 02:40:44;;;;;;;18.5;13.65;;;;;;;8.78;75.24902;95488.73;;;;
2021/09/08 02:41:45;;;;;;;18.5;13.65;;;;;;;8.78;75.24902;95488.73;;;;
2021/09/08 02:42:45;;;;;;;17.85;13.7;;;;;;;8.82;75.29883;95481.45;;;;
2021/09/08 02:43:46;;;;;;;17.85;13.7;;;;;;;8.82;75.29883;95481.45;;;;
2021/09/08 02:44:46;;;;;;;17.85;13.7;;;;;;;8.82;75.29883;95481.45;;;;
2021/09/08 02:45:47;;;;;;;17.85;13.7;;;;;;;8.82;75.29883;95481.45;;;;
2021/09/08 02:46:47;;;;;;;17.85;13.7;;;;;;;8.82;75.29883;95481.45;;;;
2021/09/08 02:47:48;;;;;;;17.85;13.7;;;;;;;8.82;75.29883;95481.45;;;;
2021/09/08 02:48:48;;;;;;;17.85;13.7;;;;;;;8.82;75.29883;95481.45;;;;
2021/09/08 02:49:49;;;;;;;17.85;13.7;;;;;;;8.82;75.29883;95481.45;;;;
2021/09/08 02:50:49;;;;;;;17.85;13.7;;;;;;;8.82;75.29883;95481.45;;;;
2021/09/08 02:51:50;;;;;;;17.85;13.7;;;;;;;8.82;75.29883;95481.45;;;;
2021/09/08 02:52:50;;;;;;;17.85;13.7;;;;;;;8.82;75.29883;95481.45;;;;
2021/09/08 02:53:51;;;;;;;18.85;14.8;;;;;;;8.82;75.2998;95477.31;;;;
2021/09/08 02:54:51;;;;;;;18.85;14.8;;;;;;;8.82;75.2998;95477.31;;;;
2021/09/08 02:55:52;;;;;;;18.85;14.8;;;;;;;8.82;75.2998;95477.31;;;;
2021/09/08 02:56:52;;;;;;;18.85;14.8;;;;;;;8.82;75.2998;95477.31;;;;
2021/09/08 02:57:53;;;;;;;18.85;14.8;;;;;;;8.82;75.2998;95477.31;;;;
2021/09/08 02:58:53;;;;;;;18.85;14.8;;;;;;;8.82;75.2998;95477.31;;;;
2021/09/08 02:59:54;;;;;;;18.85;14.8;;;;;;;8.82;75.2998;95477.31;;;;
2021/09/08 03:00:54;;;;;;;18.85;14.8;;;;;;;8.82;75.2998;95477.31;;;;
2021/09/08 03:01:55;;;;;;;18.85;14.8;;;;;;;8.82;75.2998;95477.31;;;;
2021/09/08 03:02:56;;;;;;;18.85;14.8;;;;;;;8.82;75.2998;95477.31;;;;
2021/09/08 03:03:56;;;;;;;18.5;14.5;;;;;;;8.81;75.49902;95461.39;;;;
2021/09/08 03:04:57;;;;;;;18.5;14.5;;;;;;;8.81;75.49902;95461.39;;;;
2021/09/08 03:05:58;;;;;;;18.5;14.5;;;;;;;8.81;75.49902;95461.39;;;;
2021/09/08 03:06:58;;;;;;;18.5;14.5;;;;;;;8.81;75.49902;95461.39;;;;
2021/09/08 03:07:59;;;;;;;18.5;14.5;;;;;;;8.81;75.49902;95461.39;;;;
2021/09/08 03:08:59;;;;;;;18.5;14.5;;;;;;;8.81;75.49902;95461.39;;;;
2021/09/08 03:10:00;;;;;;;18.5;14.5;;;;;;;8.81;75.49902;95461.39;;;;
2021/09/08 03:11:00;;;;;;;18.5;14.5;;;;;;;8.81;75.49902;95461.39;;;;
2021/09/08 03:12:01;;;;;;;18.5;14.5;;;;;;;8.81;75.49902;95461.39;;;;
2021/09/08 03:13:01;;;;;;;18.5;14.5;;;;;;;8.81;75.49902;95461.39;;;;
2021/09/08 03:14:02;;;;;;;18.5;14.5;;;;;;;8.81;75.49902;95461.39;;;;
2021/09/08 03:15:03;;;;;;;19.65;14.3;;;;;;;8.72;75.78223;95455.47;;;;
2021/09/08 03:16:04;;;;;;;19.65;14.3;;;;;;;8.72;75.78223;95455.47;;;;
2021/09/08 03:17:05;;;;;;;19.65;14.3;;;;;;;8.72;75.78223;95455.47;;;;
2021/09/08 03:18:05;;;;;;;19.65;14.3;;;;;;;8.72;75.78223;95455.47;;;;
2021/09/08 03:19:06;;;;;;;19.65;14.3;;;;;;;8.72;75.78223;95455.47;;;;
2021/09/08 03:20:06;;;;;;;19.65;14.3;;;;;;;8.72;75.78223;95455.47;;;;
2021/09/08 03:21:08;;;;;;;19.65;14.3;;;;;;;8.72;75.78223;95455.47;;;;
2021/09/08 03:22:09;;;;;;;19.65;14.3;;;;;;;8.72;75.78223;95455.47;;;;
2021/09/08 03:23:09;;;;;;;19.65;14.3;;;;;;;8.72;75.78223;95455.47;;;;
2021/09/08 03:24:10;;;;;;;19.65;14.3;;;;;;;8.72;75.78223;95455.47;;;;
2021/09/08 03:25:10;;;;;;;19.65;14.3;;;;;;;8.72;75.78223;95455.47;;;;
2021/09/08 03:26:11;;;;;;;19.3;14.45;;;;;;;8.71;76.03711;95451.11;;;;
2021/09/08 03:27:11;;;;;;;19.3;14.45;;;;;;;8.71;76.03711;95451.11;;;;
2021/09/08 03:28:12;;;;;;;19.3;14.45;;;;;;;8.71;76.03711;95451.11;;;;
2021/09/08 03:29:12;;;;;;;19.3;14.45;;;;;;;8.71;76.03711;95451.11;;;;
2021/09/08 03:30:12;;;;;;;19.3;14.45;;;;;;;8.71;76.03711;95451.11;;;;
2021/09/08 03:31:13;;;;;;;19.3;14.45;;;;;;;8.71;76.03711;95451.11;;;;
2021/09/08 03:32:13;;;;;;;19.3;14.45;;;;;;;8.71;76.03711;95451.11;;;;
2021/09/08 03:33:14;;;;;;;19.3;14.45;;;;;;;8.71;76.03711;95451.11;;;;
2021/09/08 03:34:14;;;;;;;19.3;14.45;;;;;;;8.71;76.03711;95451.11;;;;
2021/09/08 03:35:15;;;;;;;19.3;14.45;;;;;;;8.71;76.03711;95451.11;;;;
2021/09/08 03:36:15;;;;;;;20.4;14.55;;;;;;;8.7;76.22461;95455.38;;;;
2021/09/08 03:37:16;;;;;;;20.4;14.55;;;;;;;8.7;76.22461;95455.38;;;;
2021/09/08 03:38:16;;;;;;;20.4;14.55;;;;;;;8.7;76.22461;95455.38;;;;
2021/09/08 03:39:17;;;;;;;20.4;14.55;;;;;;;8.7;76.22461;95455.38;;;;
2021/09/08 03:40:17;;;;;;;20.4;14.55;;;;;;;8.7;76.22461;95455.38;;;;
2021/09/08 03:41:18;;;;;;;20.4;14.55;;;;;;;8.7;76.22461;95455.38;;;;
2021/09/08 03:42:18;;;;;;;20.4;14.55;;;;;;;8.7;76.22461;95455.38;;;;
2021/09/08 03:43:19;;;;;;;20.4;14.55;;;;;;;8.7;76.22461;95455.38;;;;
2021/09/08 03:44:19;;;;;;;20.4;14.55;;;;;;;8.7;76.22461;95455.38;;;;
2021/09/08 03:45:20;;;;;;;20.4;14.55;;;;;;;8.7;76.22461;95455.38;;;;
2021/09/08 03:46:20;;;;;;;20.4;14.55;;;;;;;8.7;76.22461;95455.38;;;;
2021/09/08 03:47:21;;;;;;;15.7;13.45;;;;;;;8.67;76.44336;95454.47;;;;
2021/09/08 03:48:21;;;;;;;15.7;13.45;;;;;;;8.67;76.44336;95454.47;;;;
2021/09/08 03:49:22;;;;;;;15.7;13.45;;;;;;;8.67;76.44336;95454.47;;;;
2021/09/08 03:50:22;;;;;;;15.7;13.45;;;;;;;8.67;76.44336;95454.47;;;;
2021/09/08 03:51:23;;;;;;;15.7;13.45;;;;;;;8.67;76.44336;95454.47;;;;
2021/09/08 03:52:24;;;;;;;15.7;13.45;;;;;;;8.67;76.44336;95454.47;;;;
2021/09/08 03:53:24;;;;;;;15.7;13.45;;;;;;;8.67;76.44336;95454.47;;;;
2021/09/08 03:54:25;;;;;;;15.7;13.45;;;;;;;8.67;76.44336;95454.47;;;;
2021/09/08 03:55:25;;;;;;;15.7;13.45;;;;;;;8.67;76.44336;95454.47;;;;
2021/09/08 03:56:26;;;;;;;15.7;13.45;;;;;;;8.67;76.44336;95454.47;;;;
2021/09/08 03:57:26;;;;;;;15.8;12.35;;;;;;;8.57;76.76758;95451.44;;;;
2021/09/08 03:58:27;;;;;;;15.8;12.35;;;;;;;8.57;76.76758;95451.44;;;;
2021/09/08 03:59:27;;;;;;;15.8;12.35;;;;;;;8.57;76.76758;95451.44;;;;
2021/09/08 04:00:28;;;;;;;15.8;12.35;;;;;;;8.57;76.76758;95451.44;;;;
2021/09/08 04:01:28;;;;;;;15.8;12.35;;;;;;;8.57;76.76758;95451.44;;;;
2021/09/08 04:02:29;;;;;;;15.8;12.35;;;;;;;8.57;76.76758;95451.44;;;;
2021/09/08 04:03:29;;;;;;;15.8;12.35;;;;;;;8.57;76.76758;95451.44;;;;
2021/09/08 04:04:30;;;;;;;15.8;12.35;;;;;;;8.57;76.76758;95451.44;;;;
2021/09/08 04:05:30;;;;;;;15.8;12.35;;;;;;;8.57;76.76758;95451.44;;;;
2021/09/08 04:06:31;;;;;;;15.8;12.35;;;;;;;8.57;76.76758;95451.44;;;;
2021/09/08 04:07:31;;;;;;;15.8;12.35;;;;;;;8.57;76.76758;95451.44;;;;
2021/09/08 04:08:32;;;;;;;15.25;12.9;;;;;;;8.46;77.18359;95446.25;;;;
2021/09/08 04:09:32;;;;;;;15.25;12.9;;;;;;;8.46;77.18359;95446.25;;;;
2021/09/08 04:10:32;;;;;;;15.25;12.9;;;;;;;8.46;77.18359;95446.25;;;;
2021/09/08 04:11:33;;;;;;;15.25;12.9;;;;;;;8.46;77.18359;95446.25;;;;
2021/09/08 04:12:33;;;;;;;15.25;12.9;;;;;;;8.46;77.18359;95446.25;;;;
2021/09/08 04:13:34;;;;;;;15.25;12.9;;;;;;;8.46;77.18359;95446.25;;;;
2021/09/08 04:14:36;;;;;;;15.25;12.9;;;;;;;8.46;77.18359;95446.25;;;;
2021/09/08 04:15:36;;;;;;;15.25;12.9;;;;;;;8.46;77.18359;95446.25;;;;
2021/09/08 04:16:37;;;;;;;15.25;12.9;;;;;;;8.46;77.18359;95446.25;;;;
2021/09/08 04:17:37;;;;;;;15.25;12.9;;;;;;;8.46;77.18359;95446.25;;;;
2021/09/08 04:18:38;;;;;;;18.05;13.3;;;;;;;8.39;77.55469;95449.52;;;;
2021/09/08 04:19:38;;;;;;;18.05;13.3;;;;;;;8.39;77.55469;95449.52;;;;
2021/09/08 04:20:39;;;;;;;18.05;13.3;;;;;;;8.39;77.55469;95449.52;;;;
2021/09/08 04:21:39;;;;;;;18.05;13.3;;;;;;;8.39;77.55469;95449.52;;;;
2021/09/08 04:22:39;;;;;;;18.05;13.3;;;;;;;8.39;77.55469;95449.52;;;;
2021/09/08 04:23:40;;;;;;;18.05;13.3;;;;;;;8.39;77.55469;95449.52;;;;
2021/09/08 04:24:41;;;;;;;18.05;13.3;;;;;;;8.39;77.55469;95449.52;;;;
2021/09/08 04:25:41;;;;;;;18.05;13.3;;;;;;;8.39;77.55469;95449.52;;;;
2021/09/08 04:26:42;;;;;;;18.05;13.3;;;;;;;8.39;77.55469;95449.52;;;;
2021/09/08 04:27:42;;;;;;;18.05;13.3;;;;;;;8.39;77.55469;95449.52;;;;
2021/09/08 04:28:42;;;;;;;18.05;13.3;;;;;;;8.39;77.55469;95449.52;;;;
2021/09/08 04:29:43;;;;;;;17.2;13.2;;;;;;;8.32;77.8291;95435.8;;;;
2021/09/08 04:30:43;;;;;;;17.2;13.2;;;;;;;8.32;77.8291;95435.8;;;;
2021/09/08 04:31:44;;;;;;;17.2;13.2;;;;;;;8.32;77.8291;95435.8;;;;
2021/09/08 04:32:45;;;;;;;17.2;13.2;;;;;;;8.32;77.8291;95435.8;;;;
2021/09/08 04:33:45;;;;;;;17.2;13.2;;;;;;;8.32;77.8291;95435.8;;;;
2021/09/08 04:34:45;;;;;;;17.2;13.2;;;;;;;8.32;77.8291;95435.8;;;;
2021/09/08 04:35:46;;;;;;;17.2;13.2;;;;;;;8.32;77.8291;95435.8;;;;
2021/09/08 04:36:47;;;;;;;17.2;13.2;;;;;;;8.32;77.8291;95435.8;;;;
2021/09/08 04:37:47;;;;;;;17.2;13.2;;;;;;;8.32;77.8291;95435.8;;;;
2021/09/08 04:38:48;;;;;;;17.2;13.2;;;;;;;8.32;77.8291;95435.8;;;;
2021/09/08 04:39:48;;;;;;;17.2;13.2;;;;;;;8.32;77.8291;95435.8;;;;
2021/09/08 04:40:49;;;;;;;17.15;13.3;;;;;;;8.28;78.05566;95430.96;;;;
2021/09/08 04:41:50;;;;;;;17.15;13.3;;;;;;;8.28;78.05566;95430.96;;;;
2021/09/08 04:42:50;;;;;;;17.15;13.3;;;;;;;8.28;78.05566;95430.96;;;;
2021/09/08 04:43:51;;;;;;;17.15;13.3;;;;;;;8.28;78.05566;95430.96;;;;
2021/09/08 04:44:51;;;;;;;17.15;13.3;;;;;;;8.28;78.05566;95430.96;;;;
2021/09/08 04:45:52;;;;;;;17.15;13.3;;;;;;;8.28;78.05566;95430.96;;;;
2021/09/08 04:46:52;;;;;;;17.15;13.3;;;;;;;8.28;78.05566;95430.96;;;;
2021/09/08 04:47:53;;;;;;;17.15;13.3;;;;;;;8.28;78.05566;95430.96;;;;
2021/09/08 04:48:53;;;;;;;17.15;13.3;;;;;;;8.28;78.05566;95430.96;;;;
2021/09/08 04:49:54;;;;;;;17.15;13.3;;;;;;;8.28;78.05566;95430.96;;;;
2021/09/08 04:50:54;;;;;;;20.3;15.3;;;;;;;8.27;78.24512;95436.47;;;;
2021/09/08 04:51:55;;;;;;;20.3;15.3;;;;;;;8.27;78.24512;95436.47;;;;
2021/09/08 04:52:56;;;;;;;20.3;15.3;;;;;;;8.27;78.24512;95436.47;;;;
2021/09/08 04:53:56;;;;;;;20.3;15.3;;;;;;;8.27;78.24512;95436.47;;;;
2021/09/08 04:54:57;;;;;;;20.3;15.3;;;;;;;8.27;78.24512;95436.47;;;;
2021/09/08 04:55:57;;;;;;;20.3;15.3;;;;;;;8.27;78.24512;95436.47;;;;
2021/09/08 04:56:59;;;;;;;20.3;15.3;;;;;;;8.27;78.24512;95436.47;;;;
2021/09/08 04:57:59;;;;;;;20.3;15.3;;;;;;;8.27;78.24512;95436.47;;;;
2021/09/08 04:58:59;;;;;;;20.3;15.3;;;;;;;8.27;78.24512;95436.47;;;;
2021/09/08 05:00:00;;;;;;;20.3;15.3;;;;;;;8.27;78.24512;95436.47;;;;
2021/09/08 05:01:01;;;;;;;20.3;15.3;;;;;;;8.27;78.24512;95436.47;;;;
2021/09/08 05:02:01;;;;;;;23.45;17.4;;;;;;;8.34;78.50195;95435.49;;;;
2021/09/08 05:03:02;;;;;;;23.45;17.4;;;;;;;8.34;78.50195;95435.49;;;;
2021/09/08 05:04:03;;;;;;;23.45;17.4;;;;;;;8.34;78.50195;95435.49;;;;
2021/09/08 05:05:03;;;;;;;23.45;17.4;;;;;;;8.34;78.50195;95435.49;;;;
2021/09/08 05:06:05;;;;;;;23.45;17.4;;;;;;;8.34;78.50195;95435.49;;;;
2021/09/08 05:07:05;;;;;;;23.45;17.4;;;;;;;8.34;78.50195;95435.49;;;;
2021/09/08 05:08:06;;;;;;;23.45;17.4;;;;;;;8.34;78.50195;95435.49;;;;
2021/09/08 05:09:06;;;;;;;23.45;17.4;;;;;;;8.34;78.50195;95435.49;;;;
2021/09/08 05:10:07;;;;;;;23.45;17.4;;;;;;;8.34;78.50195;95435.49;;;;
2021/09/08 05:11:08;;;;;;;23.45;17.4;;;;;;;8.34;78.50195;95435.49;;;;
2021/09/08 05:12:10;;;;;;;28.5;20.15;;;;;;;8.62;78.56348;95437.21;;;;
2021/09/08 05:13:10;;;;;;;28.5;20.15;;;;;;;8.62;78.56348;95437.21;;;;
2021/09/08 05:14:11;;;;;;;28.5;20.15;;;;;;;8.62;78.56348;95437.21;;;;
2021/09/08 05:15:11;;;;;;;28.5;20.15;;;;;;;8.62;78.56348;95437.21;;;;
2021/09/08 05:16:12;;;;;;;28.5;20.15;;;;;;;8.62;78.56348;95437.21;;;;
2021/09/08 05:17:12;;;;;;;28.5;20.15;;;;;;;8.62;78.56348;95437.21;;;;
2021/09/08 05:18:13;;;;;;;28.5;20.15;;;;;;;8.62;78.56348;95437.21;;;;
2021/09/08 05:19:13;;;;;;;28.5;20.15;;;;;;;8.62;78.56348;95437.21;;;;
2021/09/08 05:20:14;;;;;;;28.5;20.15;;;;;;;8.62;78.56348;95437.21;;;;
2021/09/08 05:21:14;;;;;;;28.5;20.15;;;;;;;8.62;78.56348;95437.21;;;;
2021/09/08 05:22:15;;;;;;;28.5;20.15;;;;;;;8.62;78.56348;95437.21;;;;
2021/09/08 05:23:15;;;;;;;27.85;21.6;;;;;;;8.9;78.55078;95442.99;;;;
2021/09/08 05:24:16;;;;;;;27.85;21.6;;;;;;;8.9;78.55078;95442.99;;;;
2021/09/08 05:25:16;;;;;;;27.85;21.6;;;;;;;8.9;78.55078;95442.99;;;;
2021/09/08 05:26:17;;;;;;;27.85;21.6;;;;;;;8.9;78.55078;95442.99;;;;
2021/09/08 05:27:17;;;;;;;27.85;21.6;;;;;;;8.9;78.55078;95442.99;;;;
2021/09/08 05:28:19;;;;;;;27.85;21.6;;;;;;;8.9;78.55078;95442.99;;;;
2021/09/08 05:29:20;;;;;;;27.85;21.6;;;;;;;8.9;78.55078;95442.99;;;;
2021/09/08 05:30:20;;;;;;;27.85;21.6;;;;;;;8.9;78.55078;95442.99;;;;
2021/09/08 05:31:21;;;;;;;27.85;21.6;;;;;;;8.9;78.55078;95442.99;;;;
2021/09/08 05:32:21;;;;;;;27.85;21.6;;;;;;;8.9;78.55078;95442.99;;;;
2021/09/08 05:33:22;;;;;;;28;22.45;;;;;;;9.19;78.74023;95448.6;;;;
2021/09/08 05:34:22;;;;;;;28;22.45;;;;;;;9.19;78.74023;95448.6;;;;
2021/09/08 05:35:23;;;;;;;28;22.45;;;;;;;9.19;78.74023;95448.6;;;;
2021/09/08 05:36:23;;;;;;;28;22.45;;;;;;;9.19;78.74023;95448.6;;;;
2021/09/08 05:37:24;;;;;;;28;22.45;;;;;;;9.19;78.74023;95448.6;;;;
2021/09/08 05:38:24;;;;;;;28;22.45;;;;;;;9.19;78.74023;95448.6;;;;
2021/09/08 05:39:25;;;;;;;28;22.45;;;;;;;9.19;78.74023;95448.6;;;;
2021/09/08 05:40:25;;;;;;;28;22.45;;;;;;;9.19;78.74023;95448.6;;;;
2021/09/08 05:41:26;;;;;;;28;22.45;;;;;;;9.19;78.74023;95448.6;;;;
2021/09/08 05:42:26;;;;;;;28;22.45;;;;;;;9.19;78.74023;95448.6;;;;
2021/09/08 05:43:27;;;;;;;28;22.45;;;;;;;9.19;78.74023;95448.6;;;;
2021/09/08 05:44:27;;;;;;;28.4;23.45;;;;;;;9.5;79.12891;95455.17;;;;
2021/09/08 05:45:28;;;;;;;28.4;23.45;;;;;;;9.5;79.12891;95455.17;;;;